sensor_id;sensor_type;location;lat;lon;timestamp;pressure;altitude;pressure_sealevel;temperature;humidity
73267;BME280;61495;53.400;7.608;2023-07-09T00:01:04;101818.56;;;22.97;57.67
73267;BME280;61495;53.400;7.608;2023-07-09T00:03:30;101818.28;;;22.94;57.25
73267;BME280;61495;53.400;7.608;2023-07-09T00:05:56;101816.34;;;22.89;57.95
73267;BME280;61495;53.400;7.608;2023-07-09T00:08:27;101819.34;;;22.88;57.42
73267;BME280;61495;53.400;7.608;2023-07-09T00:10:55;101819.88;;;22.85;58.56
73267;BME280;61495;53.400;7.608;2023-07-09T00:13:21;101817.09;;;22.80;58.55
73267;BME280;61495;53.400;7.608;2023-07-09T00:15:49;101823.09;;;22.77;57.92
73267;BME280;61495;53.400;7.608;2023-07-09T00:18:14;101824.16;;;22.71;57.90
73267;BME280;61495;53.400;7.608;2023-07-09T00:20:40;101829.63;;;22.71;58.01
73267;BME280;61495;53.400;7.608;2023-07-09T00:23:11;101824.13;;;22.65;58.95
73267;BME280;61495;53.400;7.608;2023-07-09T00:25:42;101823.50;;;22.63;57.78
73267;BME280;61495;53.400;7.608;2023-07-09T00:28:27;101829.19;;;22.57;58.89
73267;BME280;61495;53.400;7.608;2023-07-09T00:30:52;101825.66;;;22.56;58.63
73267;BME280;61495;53.400;7.608;2023-07-09T00:33:17;101820.97;;;22.52;59.03
73267;BME280;61495;53.400;7.608;2023-07-09T00:35:47;101821.19;;;22.45;58.95
73267;BME280;61495;53.400;7.608;2023-07-09T00:38:21;101819.56;;;22.44;59.52
73267;BME280;61495;53.400;7.608;2023-07-09T00:41:12;101820.34;;;22.40;59.30
73267;BME280;61495;53.400;7.608;2023-07-09T00:43:43;101812.34;;;22.33;59.30
73267;BME280;61495;53.400;7.608;2023-07-09T00:48:54;101815.88;;;22.29;59.46
73267;BME280;61495;53.400;7.608;2023-07-09T00:51:23;101817.22;;;22.26;58.58
73267;BME280;61495;53.400;7.608;2023-07-09T00:53:52;101817.75;;;22.23;59.49
73267;BME280;61495;53.400;7.608;2023-07-09T00:56:30;101818.50;;;22.19;59.78
73267;BME280;61495;53.400;7.608;2023-07-09T00:59:00;101813.28;;;22.12;60.25
73267;BME280;61495;53.400;7.608;2023-07-09T01:01:30;101812.72;;;22.10;60.03
73267;BME280;61495;53.400;7.608;2023-07-09T01:03:58;101809.16;;;22.09;59.99
73267;BME280;61495;53.400;7.608;2023-07-09T01:06:40;101807.22;;;22.05;59.84
73267;BME280;61495;53.400;7.608;2023-07-09T01:09:07;101808.28;;;22.04;60.75
73267;BME280;61495;53.400;7.608;2023-07-09T01:11:33;101810.69;;;22.00;60.31
73267;BME280;61495;53.400;7.608;2023-07-09T01:14:02;101812.84;;;21.93;59.52
73267;BME280;61495;53.400;7.608;2023-07-09T01:16:30;101807.91;;;21.90;59.69
73267;BME280;61495;53.400;7.608;2023-07-09T01:18:57;101805.41;;;21.89;60.14
73267;BME280;61495;53.400;7.608;2023-07-09T01:21:22;101804.25;;;21.85;60.52
73267;BME280;61495;53.400;7.608;2023-07-09T01:23:49;101811.06;;;21.82;60.13
73267;BME280;61495;53.400;7.608;2023-07-09T01:26:18;101809.66;;;21.80;60.05
73267;BME280;61495;53.400;7.608;2023-07-09T01:28:44;101812.09;;;21.76;60.19
73267;BME280;61495;53.400;7.608;2023-07-09T01:31:11;101809.06;;;21.73;60.99
73267;BME280;61495;53.400;7.608;2023-07-09T01:33:39;101816.91;;;21.69;60.69
73267;BME280;61495;53.400;7.608;2023-07-09T01:36:09;101816.09;;;21.69;61.95
73267;BME280;61495;53.400;7.608;2023-07-09T01:38:35;101811.66;;;21.63;60.73
73267;BME280;61495;53.400;7.608;2023-07-09T01:41:01;101800.69;;;21.57;61.03
73267;BME280;61495;53.400;7.608;2023-07-09T01:43:27;101805.00;;;21.53;61.41
73267;BME280;61495;53.400;7.608;2023-07-09T01:45:53;101811.28;;;21.54;62.22
73267;BME280;61495;53.400;7.608;2023-07-09T01:48:23;101814.81;;;21.49;62.28
73267;BME280;61495;53.400;7.608;2023-07-09T01:50:50;101809.84;;;21.46;62.38
73267;BME280;61495;53.400;7.608;2023-07-09T01:53:17;101809.25;;;21.44;61.52
73267;BME280;61495;53.400;7.608;2023-07-09T01:55:44;101813.59;;;21.40;62.46
73267;BME280;61495;53.400;7.608;2023-07-09T01:58:10;101813.00;;;21.38;61.67
73267;BME280;61495;53.400;7.608;2023-07-09T02:00:36;101813.53;;;21.35;63.03
73267;BME280;61495;53.400;7.608;2023-07-09T02:03:02;101811.31;;;21.32;60.88
73267;BME280;61495;53.400;7.608;2023-07-09T02:05:30;101811.81;;;21.29;62.53
73267;BME280;61495;53.400;7.608;2023-07-09T02:07:56;101810.69;;;21.25;62.54
73267;BME280;61495;53.400;7.608;2023-07-09T02:10:22;101815.00;;;21.21;61.42
73267;BME280;61495;53.400;7.608;2023-07-09T02:12:47;101815.50;;;21.18;61.30
73267;BME280;61495;53.400;7.608;2023-07-09T02:15:14;101806.19;;;21.14;61.83
73267;BME280;61495;53.400;7.608;2023-07-09T02:17:39;101811.56;;;21.09;61.59
73267;BME280;61495;53.400;7.608;2023-07-09T02:20:06;101802.31;;;21.10;62.73
73267;BME280;61495;53.400;7.608;2023-07-09T02:22:36;101802.78;;;21.07;63.33
73267;BME280;61495;53.400;7.608;2023-07-09T02:25:02;101809.81;;;21.03;62.74
73267;BME280;61495;53.400;7.608;2023-07-09T02:27:27;101804.84;;;21.00;62.67
73267;BME280;61495;53.400;7.608;2023-07-09T02:29:53;101806.19;;;20.97;63.01
73267;BME280;61495;53.400;7.608;2023-07-09T02:32:22;101793.91;;;20.95;61.90
73267;BME280;61495;53.400;7.608;2023-07-09T02:34:48;101791.94;;;20.90;63.44
73267;BME280;61495;53.400;7.608;2023-07-09T02:37:19;101796.25;;;20.86;62.95
73267;BME280;61495;53.400;7.608;2023-07-09T02:39:45;101791.28;;;20.83;63.21
73267;BME280;61495;53.400;7.608;2023-07-09T02:42:13;101797.25;;;20.80;63.19
73267;BME280;61495;53.400;7.608;2023-07-09T02:44:39;101790.63;;;20.76;61.87
73267;BME280;61495;53.400;7.608;2023-07-09T02:47:05;101799.31;;;20.73;62.12
73267;BME280;61495;53.400;7.608;2023-07-09T02:49:30;101791.91;;;20.69;62.34
73267;BME280;61495;53.400;7.608;2023-07-09T02:51:56;101793.47;;;20.65;62.71
73267;BME280;61495;53.400;7.608;2023-07-09T02:54:21;101796.13;;;20.60;62.46
73267;BME280;61495;53.400;7.608;2023-07-09T02:56:46;101789.50;;;20.56;63.11
73267;BME280;61495;53.400;7.608;2023-07-09T02:59:12;101798.44;;;20.51;62.87
73267;BME280;61495;53.400;7.608;2023-07-09T03:01:37;101791.00;;;20.46;62.80
73267;BME280;61495;53.400;7.608;2023-07-09T03:04:03;101795.81;;;20.39;62.83
73267;BME280;61495;53.400;7.608;2023-07-09T03:06:29;101796.31;;;20.36;63.31
73267;BME280;61495;53.400;7.608;2023-07-09T03:08:55;101795.16;;;20.32;63.34
73267;BME280;61495;53.400;7.608;2023-07-09T03:11:20;101792.09;;;20.29;63.57
73267;BME280;61495;53.400;7.608;2023-07-09T03:13:47;101797.81;;;20.27;63.64
73267;BME280;61495;53.400;7.608;2023-07-09T03:16:13;101788.44;;;20.23;63.86
73267;BME280;61495;53.400;7.608;2023-07-09T03:18:39;101789.50;;;20.22;64.20
73267;BME280;61495;53.400;7.608;2023-07-09T03:21:04;101792.16;;;20.17;63.21
73267;BME280;61495;53.400;7.608;2023-07-09T03:23:30;101786.13;;;20.15;63.73
73267;BME280;61495;53.400;7.608;2023-07-09T03:25:55;101793.13;;;20.11;63.50
73267;BME280;61495;53.400;7.608;2023-07-09T03:28:21;101797.16;;;20.09;63.92
73267;BME280;61495;53.400;7.608;2023-07-09T03:30:48;101796.00;;;20.05;64.05
73267;BME280;61495;53.400;7.608;2023-07-09T03:33:15;101794.59;;;20.02;64.59
73267;BME280;61495;53.400;7.608;2023-07-09T03:35:41;101798.06;;;19.98;63.89
73267;BME280;61495;53.400;7.608;2023-07-09T03:38:07;101796.41;;;19.96;66.34
73267;BME280;61495;53.400;7.608;2023-07-09T03:40:34;101794.44;;;19.92;64.88
73267;BME280;61495;53.400;7.608;2023-07-09T03:43:00;101793.63;;;19.91;64.38
73267;BME280;61495;53.400;7.608;2023-07-09T03:45:26;101788.91;;;19.87;64.67
73267;BME280;61495;53.400;7.608;2023-07-09T03:47:51;101786.66;;;19.84;65.43
73267;BME280;61495;53.400;7.608;2023-07-09T03:50:17;101788.31;;;19.85;64.29
73267;BME280;61495;53.400;7.608;2023-07-09T03:52:42;101793.75;;;19.85;64.79
73267;BME280;61495;53.400;7.608;2023-07-09T03:55:08;101787.16;;;19.81;64.73
73267;BME280;61495;53.400;7.608;2023-07-09T03:57:34;101793.41;;;19.81;64.69
73267;BME280;61495;53.400;7.608;2023-07-09T04:00:01;101790.97;;;19.80;64.48
73267;BME280;61495;53.400;7.608;2023-07-09T04:02:28;101794.50;;;19.80;64.86
73267;BME280;61495;53.400;7.608;2023-07-09T04:04:53;101792.59;;;19.81;65.37
73267;BME280;61495;53.400;7.608;2023-07-09T04:07:19;101789.06;;;19.80;65.09
73267;BME280;61495;53.400;7.608;2023-07-09T04:09:44;101794.75;;;19.79;64.79
73267;BME280;61495;53.400;7.608;2023-07-09T04:12:10;101792.03;;;19.79;63.82
73267;BME280;61495;53.400;7.608;2023-07-09T04:14:35;101789.31;;;19.79;64.27
73267;BME280;61495;53.400;7.608;2023-07-09T04:17:01;101787.63;;;19.78;63.89
73267;BME280;61495;53.400;7.608;2023-07-09T04:19:27;101791.44;;;19.77;64.61
73267;BME280;61495;53.400;7.608;2023-07-09T04:21:52;101778.91;;;19.76;64.43
73267;BME280;61495;53.400;7.608;2023-07-09T04:24:19;101786.00;;;19.77;64.44
73267;BME280;61495;53.400;7.608;2023-07-09T04:26:45;101777.59;;;19.78;64.57
73267;BME280;61495;53.400;7.608;2023-07-09T04:29:10;101786.00;;;19.77;64.41
73267;BME280;61495;53.400;7.608;2023-07-09T04:31:36;101786.00;;;19.77;65.26
73267;BME280;61495;53.400;7.608;2023-07-09T04:34:03;101792.50;;;19.76;64.58
73267;BME280;61495;53.400;7.608;2023-07-09T04:36:28;101789.78;;;19.76;65.29
73267;BME280;61495;53.400;7.608;2023-07-09T04:38:54;101799.34;;;19.78;64.43
73267;BME280;61495;53.400;7.608;2023-07-09T04:41:19;101797.22;;;19.80;63.79
73267;BME280;61495;53.400;7.608;2023-07-09T04:43:44;101803.47;;;19.81;64.04
73267;BME280;61495;53.400;7.608;2023-07-09T04:46:10;101795.91;;;19.83;64.46
73267;BME280;61495;53.400;7.608;2023-07-09T04:48:35;101793.75;;;19.85;63.95
73267;BME280;61495;53.400;7.608;2023-07-09T04:51:00;101802.50;;;19.87;65.09
73267;BME280;61495;53.400;7.608;2023-07-09T04:53:26;101795.50;;;19.91;64.45
73267;BME280;61495;53.400;7.608;2023-07-09T04:55:51;101799.06;;;19.91;63.76
73267;BME280;61495;53.400;7.608;2023-07-09T04:58:17;101799.72;;;19.98;63.72
73267;BME280;61495;53.400;7.608;2023-07-09T05:00:43;101796.25;;;20.03;64.41
73267;BME280;61495;53.400;7.608;2023-07-09T05:03:09;101800.72;;;20.09;64.40
73267;BME280;61495;53.400;7.608;2023-07-09T05:05:34;101802.69;;;20.14;64.78
73267;BME280;61495;53.400;7.608;2023-07-09T05:07:59;101805.81;;;20.22;63.93
73267;BME280;61495;53.400;7.608;2023-07-09T05:10:25;101806.88;;;20.33;66.27
73267;BME280;61495;53.400;7.608;2023-07-09T05:12:53;101803.00;;;20.45;65.15
73267;BME280;61495;53.400;7.608;2023-07-09T05:15:21;101807.84;;;20.60;65.51
73267;BME280;61495;53.400;7.608;2023-07-09T05:17:46;101802.94;;;20.79;65.67
73267;BME280;61495;53.400;7.608;2023-07-09T05:20:13;101804.31;;;20.98;65.11
73267;BME280;61495;53.400;7.608;2023-07-09T05:22:39;101805.28;;;21.09;64.78
73267;BME280;61495;53.400;7.608;2023-07-09T05:25:05;101810.38;;;21.22;64.23
73267;BME280;61495;53.400;7.608;2023-07-09T05:27:30;101799.09;;;21.35;64.32
73267;BME280;61495;53.400;7.608;2023-07-09T05:29:55;101794.25;;;21.42;63.78
73267;BME280;61495;53.400;7.608;2023-07-09T05:32:21;101806.72;;;21.59;63.80
73267;BME280;61495;53.400;7.608;2023-07-09T05:34:46;101794.81;;;21.71;63.62
73267;BME280;61495;53.400;7.608;2023-07-09T05:37:11;101799.31;;;21.82;63.61
73267;BME280;61495;53.400;7.608;2023-07-09T05:39:37;101792.91;;;21.93;63.87
73267;BME280;61495;53.400;7.608;2023-07-09T05:42:02;101788.09;;;22.05;63.31
73267;BME280;61495;53.400;7.608;2023-07-09T05:44:28;101787.16;;;22.21;63.16
73267;BME280;61495;53.400;7.608;2023-07-09T05:46:53;101798.16;;;22.31;62.16
73267;BME280;61495;53.400;7.608;2023-07-09T05:49:18;101803.19;;;22.44;62.03
73267;BME280;61495;53.400;7.608;2023-07-09T05:51:44;101805.75;;;22.61;61.80
73267;BME280;61495;53.400;7.608;2023-07-09T05:54:09;101811.06;;;22.78;61.50
73267;BME280;61495;53.400;7.608;2023-07-09T05:56:34;101813.63;;;22.94;60.92
73267;BME280;61495;53.400;7.608;2023-07-09T05:59:00;101809.00;;;22.95;60.67
73267;BME280;61495;53.400;7.608;2023-07-09T06:01:25;101810.06;;;22.89;59.01
73267;BME280;61495;53.400;7.608;2023-07-09T06:03:52;101813.41;;;23.01;58.98
73267;BME280;61495;53.400;7.608;2023-07-09T06:06:18;101813.97;;;23.08;58.54
73267;BME280;61495;53.400;7.608;2023-07-09T06:08:44;101814.84;;;23.18;58.42
73267;BME280;61495;53.400;7.608;2023-07-09T06:11:09;101809.69;;;23.22;57.67
73267;BME280;61495;53.400;7.608;2023-07-09T06:13:35;101816.78;;;23.28;57.80
73267;BME280;61495;53.400;7.608;2023-07-09T06:16:01;101820.97;;;23.41;58.30
73267;BME280;61495;53.400;7.608;2023-07-09T06:18:27;101818.00;;;23.52;57.42
73267;BME280;61495;53.400;7.608;2023-07-09T06:20:56;101820.50;;;23.59;57.36
73267;BME280;61495;53.400;7.608;2023-07-09T06:23:22;101820.53;;;23.69;57.22
73267;BME280;61495;53.400;7.608;2023-07-09T06:25:47;101815.63;;;23.81;56.82
73267;BME280;61495;53.400;7.608;2023-07-09T06:28:16;101812.91;;;23.86;56.83
73267;BME280;61495;53.400;7.608;2023-07-09T06:30:42;101804.97;;;24.00;56.54
73267;BME280;61495;53.400;7.608;2023-07-09T06:33:08;101816.25;;;24.18;56.63
73267;BME280;61495;53.400;7.608;2023-07-09T06:35:33;101814.31;;;24.29;56.31
73267;BME280;61495;53.400;7.608;2023-07-09T06:37:58;101817.31;;;24.48;56.10
73267;BME280;61495;53.400;7.608;2023-07-09T06:40:24;101828.00;;;24.54;55.35
73267;BME280;61495;53.400;7.608;2023-07-09T06:42:50;101823.34;;;24.65;55.48
73267;BME280;61495;53.400;7.608;2023-07-09T06:45:16;101822.50;;;24.79;55.05
73267;BME280;61495;53.400;7.608;2023-07-09T06:47:41;101828.50;;;24.92;54.85
73267;BME280;61495;53.400;7.608;2023-07-09T06:50:06;101828.78;;;24.95;54.46
73267;BME280;61495;53.400;7.608;2023-07-09T06:52:32;101834.00;;;25.02;54.61
73267;BME280;61495;53.400;7.608;2023-07-09T06:54:57;101832.59;;;25.14;54.34
73267;BME280;61495;53.400;7.608;2023-07-09T06:57:22;101838.75;;;25.45;53.91
73267;BME280;61495;53.400;7.608;2023-07-09T06:59:48;101833.81;;;25.52;54.18
73267;BME280;61495;53.400;7.608;2023-07-09T07:02:13;101837.34;;;25.58;53.52
73267;BME280;61495;53.400;7.608;2023-07-09T07:04:38;101845.28;;;25.64;53.29
73267;BME280;61495;53.400;7.608;2023-07-09T07:07:04;101837.50;;;25.81;53.12
73267;BME280;61495;53.400;7.608;2023-07-09T07:09:30;101842.63;;;25.98;53.01
73267;BME280;61495;53.400;7.608;2023-07-09T07:11:55;101844.50;;;26.03;52.36
73267;BME280;61495;53.400;7.608;2023-07-09T07:14:21;101838.41;;;26.16;52.53
73267;BME280;61495;53.400;7.608;2023-07-09T07:16:46;101828.00;;;26.41;52.75
73267;BME280;61495;53.400;7.608;2023-07-09T07:19:11;101825.50;;;26.45;52.46
73267;BME280;61495;53.400;7.608;2023-07-09T07:21:37;101826.53;;;26.54;51.56
73267;BME280;61495;53.400;7.608;2023-07-09T07:24:02;101834.97;;;26.63;51.87
73267;BME280;61495;53.400;7.608;2023-07-09T07:26:28;101834.63;;;26.69;51.77
73267;BME280;61495;53.400;7.608;2023-07-09T07:28:54;101839.06;;;26.94;51.64
73267;BME280;61495;53.400;7.608;2023-07-09T07:31:19;101840.81;;;27.09;50.96
73267;BME280;61495;53.400;7.608;2023-07-09T07:33:44;101833.69;;;27.08;50.17
73267;BME280;61495;53.400;7.608;2023-07-09T07:36:10;101833.44;;;27.28;50.72
73267;BME280;61495;53.400;7.608;2023-07-09T07:38:36;101832.97;;;27.44;49.91
73267;BME280;61495;53.400;7.608;2023-07-09T07:41:02;101834.63;;;27.45;50.02
73267;BME280;61495;53.400;7.608;2023-07-09T07:43:27;101832.34;;;27.71;50.05
73267;BME280;61495;53.400;7.608;2023-07-09T07:45:53;101834.28;;;27.89;49.64
73267;BME280;61495;53.400;7.608;2023-07-09T07:48:18;101832.97;;;28.05;49.41
73267;BME280;61495;53.400;7.608;2023-07-09T07:50:45;101836.38;;;28.16;48.11
73267;BME280;61495;53.400;7.608;2023-07-09T07:53:11;101832.97;;;28.05;47.96
73267;BME280;61495;53.400;7.608;2023-07-09T07:55:36;101832.91;;;28.24;48.48
73267;BME280;61495;53.400;7.608;2023-07-09T07:58:02;101836.38;;;28.48;48.19
73267;BME280;61495;53.400;7.608;2023-07-09T08:00:29;101839.00;;;28.72;47.88
73267;BME280;61495;53.400;7.608;2023-07-09T08:02:54;101836.84;;;28.69;46.95
73267;BME280;61495;53.400;7.608;2023-07-09T08:05:20;101837.19;;;28.81;47.13
73267;BME280;61495;53.400;7.608;2023-07-09T08:07:45;101838.53;;;28.97;47.30
73267;BME280;61495;53.400;7.608;2023-07-09T08:10:11;101835.06;;;29.05;47.97
73267;BME280;61495;53.400;7.608;2023-07-09T08:12:37;101845.94;;;29.29;47.48
73267;BME280;61495;53.400;7.608;2023-07-09T08:15:03;101838.88;;;29.37;47.14
73267;BME280;61495;53.400;7.608;2023-07-09T08:17:29;101840.41;;;29.29;46.12
73267;BME280;61495;53.400;7.608;2023-07-09T08:19:54;101837.22;;;29.36;46.27
73267;BME280;61495;53.400;7.608;2023-07-09T08:22:20;101840.78;;;29.50;46.42
73267;BME280;61495;53.400;7.608;2023-07-09T08:24:47;101842.31;;;29.69;46.04
73267;BME280;61495;53.400;7.608;2023-07-09T08:27:13;101846.88;;;29.74;46.02
73267;BME280;61495;53.400;7.608;2023-07-09T08:29:39;101844.44;;;29.86;45.58
73267;BME280;61495;53.400;7.608;2023-07-09T08:32:07;101840.69;;;30.04;45.39
73267;BME280;61495;53.400;7.608;2023-07-09T08:34:33;101843.50;;;30.13;44.92
73267;BME280;61495;53.400;7.608;2023-07-09T08:36:58;101842.81;;;30.07;44.05
73267;BME280;61495;53.400;7.608;2023-07-09T08:39:24;101835.41;;;30.16;44.35
73267;BME280;61495;53.400;7.608;2023-07-09T08:42:39;101829.88;;;30.39;44.38
73267;BME280;61495;53.400;7.608;2023-07-09T08:50:59;101826.09;;;30.88;43.80
73267;BME280;61495;53.400;7.608;2023-07-09T08:53:37;101823.22;;;31.01;43.92
73267;BME280;61495;53.400;7.608;2023-07-09T08:56:10;101819.53;;;31.14;43.83
73267;BME280;61495;53.400;7.608;2023-07-09T08:58:37;101828.03;;;31.18;44.14
73267;BME280;61495;53.400;7.608;2023-07-09T09:01:06;101818.44;;;31.24;43.14
73267;BME280;61495;53.400;7.608;2023-07-09T09:03:37;101819.09;;;31.29;42.72
73267;BME280;61495;53.400;7.608;2023-07-09T09:06:13;101824.84;;;31.42;43.30
73267;BME280;61495;53.400;7.608;2023-07-09T09:12:18;101824.72;;;31.55;43.54
73267;BME280;61495;53.400;7.608;2023-07-09T09:15:00;101827.50;;;31.64;42.99
73267;BME280;61495;53.400;7.608;2023-07-09T09:17:27;101830.78;;;31.83;44.44
73267;BME280;61495;53.400;7.608;2023-07-09T09:20:37;101827.50;;;31.98;43.57
73267;BME280;61495;53.400;7.608;2023-07-09T09:22:47;101825.22;;;31.83;41.92
73267;BME280;61495;53.400;7.608;2023-07-09T09:25:27;101834.03;;;31.85;40.91
73267;BME280;61495;53.400;7.608;2023-07-09T09:27:54;101837.97;;;32.10;42.86
73267;BME280;61495;53.400;7.608;2023-07-09T09:30:21;101839.44;;;32.24;42.68
73267;BME280;61495;53.400;7.608;2023-07-09T09:32:55;101827.66;;;32.36;42.49
73267;BME280;61495;53.400;7.608;2023-07-09T09:35:28;101835.63;;;32.46;42.98
73267;BME280;61495;53.400;7.608;2023-07-09T09:37:56;101839.22;;;32.46;40.67
73267;BME280;61495;53.400;7.608;2023-07-09T09:40:23;101827.13;;;32.60;42.64
73267;BME280;61495;53.400;7.608;2023-07-09T09:42:51;101820.19;;;32.83;41.74
73267;BME280;61495;53.400;7.608;2023-07-09T09:45:19;101820.63;;;32.93;41.94
73267;BME280;61495;53.400;7.608;2023-07-09T09:47:46;101824.72;;;32.96;41.57
73267;BME280;61495;53.400;7.608;2023-07-09T09:50:16;101818.78;;;33.06;42.24
73267;BME280;61495;53.400;7.608;2023-07-09T09:52:43;101811.91;;;33.12;41.65
73267;BME280;61495;53.400;7.608;2023-07-09T09:55:18;101824.66;;;33.13;42.11
73267;BME280;61495;53.400;7.608;2023-07-09T09:57:51;101827.81;;;33.32;42.01
73267;BME280;61495;53.400;7.608;2023-07-09T10:00:18;101817.66;;;33.36;42.16
73267;BME280;61495;53.400;7.608;2023-07-09T10:02:44;101817.28;;;33.46;42.10
73267;BME280;61495;53.400;7.608;2023-07-09T10:05:16;101815.28;;;33.47;41.26
73267;BME280;61495;53.400;7.608;2023-07-09T10:08:14;101813.06;;;33.40;41.38
73267;BME280;61495;53.400;7.608;2023-07-09T10:10:44;101818.19;;;33.50;41.99
73267;BME280;61495;53.400;7.608;2023-07-09T10:16:13;101826.94;;;33.90;41.17
73267;BME280;61495;53.400;7.608;2023-07-09T10:18:50;101831.41;;;33.83;40.08
73267;BME280;61495;53.400;7.608;2023-07-09T10:21:41;101834.91;;;33.92;41.08
73267;BME280;61495;53.400;7.608;2023-07-09T10:26:46;101837.09;;;34.07;39.39
73267;BME280;61495;53.400;7.608;2023-07-09T10:35:04;101831.44;;;34.48;42.31
73267;BME280;61495;53.400;7.608;2023-07-09T10:40:10;101830.81;;;34.64;40.82
73267;BME280;61495;53.400;7.608;2023-07-09T10:42:44;101829.69;;;34.65;40.49
73267;BME280;61495;53.400;7.608;2023-07-09T10:45:15;101833.53;;;34.51;40.49
73267;BME280;61495;53.400;7.608;2023-07-09T10:47:48;101830.06;;;34.54;38.61
73267;BME280;61495;53.400;7.608;2023-07-09T10:50:17;101829.44;;;34.70;39.16
73267;BME280;61495;53.400;7.608;2023-07-09T10:52:46;101829.44;;;34.70;38.96
73267;BME280;61495;53.400;7.608;2023-07-09T10:55:19;101837.69;;;34.78;39.17
73267;BME280;61495;53.400;7.608;2023-07-09T10:57:54;101828.31;;;34.95;39.53
73267;BME280;61495;53.400;7.608;2023-07-09T11:00:27;101825.53;;;34.95;39.86
73267;BME280;61495;53.400;7.608;2023-07-09T11:03:00;101817.06;;;34.91;39.09
73267;BME280;61495;53.400;7.608;2023-07-09T11:05:27;101822.25;;;35.05;39.12
73267;BME280;61495;53.400;7.608;2023-07-09T11:10:32;101818.44;;;34.85;38.32
73267;BME280;61495;53.400;7.608;2023-07-09T11:13:05;101815.53;;;34.94;37.72
73267;BME280;61495;53.400;7.608;2023-07-09T11:15:35;101816.34;;;34.82;37.48
73267;BME280;61495;53.400;7.608;2023-07-09T11:18:04;101805.53;;;35.05;38.45
73267;BME280;61495;53.400;7.608;2023-07-09T11:20:36;101813.09;;;34.92;37.21
73267;BME280;61495;53.400;7.608;2023-07-09T11:23:05;101804.19;;;35.11;37.51
73267;BME280;61495;53.400;7.608;2023-07-09T11:25:43;101793.94;;;34.91;37.39
73267;BME280;61495;53.400;7.608;2023-07-09T11:28:09;101804.75;;;34.80;36.88
73267;BME280;61495;53.400;7.608;2023-07-09T11:30:52;101792.31;;;34.90;37.41
73267;BME280;61495;53.400;7.608;2023-07-09T11:33:28;101790.34;;;35.02;37.22
73267;BME280;61495;53.400;7.608;2023-07-09T11:36:10;101784.53;;;35.20;37.11
73267;BME280;61495;53.400;7.608;2023-07-09T11:38:40;101782.34;;;35.01;36.21
73267;BME280;61495;53.400;7.608;2023-07-09T11:49:13;101776.38;;;35.39;36.70
73267;BME280;61495;53.400;7.608;2023-07-09T11:51:45;101777.63;;;35.53;37.80
73267;BME280;61495;53.400;7.608;2023-07-09T11:54:14;101781.81;;;35.59;37.76
73267;BME280;61495;53.400;7.608;2023-07-09T11:56:40;101777.78;;;35.33;35.33
73267;BME280;61495;53.400;7.608;2023-07-09T11:59:06;101776.53;;;35.18;35.53
73267;BME280;61495;53.400;7.608;2023-07-09T12:01:43;101773.16;;;35.25;35.69
73267;BME280;61495;53.400;7.608;2023-07-09T12:04:17;101777.94;;;35.12;35.31
73267;BME280;61495;53.400;7.608;2023-07-09T12:06:44;101769.50;;;35.48;35.84
73267;BME280;61495;53.400;7.608;2023-07-09T12:09:18;101765.13;;;35.35;34.84
73267;BME280;61495;53.400;7.608;2023-07-09T12:11:46;101769.53;;;35.36;35.65
73267;BME280;61495;53.400;7.608;2023-07-09T12:14:15;101764.88;;;35.40;35.94
73267;BME280;61495;53.400;7.608;2023-07-09T12:16:43;101754.63;;;35.56;35.03
73267;BME280;61495;53.400;7.608;2023-07-09T12:19:15;101763.44;;;35.58;35.69
73267;BME280;61495;53.400;7.608;2023-07-09T12:21:48;101761.16;;;35.60;34.80
73267;BME280;61495;53.400;7.608;2023-07-09T12:24:28;101767.06;;;35.47;36.89
73267;BME280;61495;53.400;7.608;2023-07-09T12:26:58;101756.47;;;35.52;33.34
73267;BME280;61495;53.400;7.608;2023-07-09T12:29:25;101750.19;;;35.55;35.07
73267;BME280;61495;53.400;7.608;2023-07-09T12:31:51;101750.38;;;35.75;36.66
73267;BME280;61495;53.400;7.608;2023-07-09T12:34:16;101742.25;;;35.69;35.24
73267;BME280;61495;53.400;7.608;2023-07-09T12:36:52;101746.28;;;35.56;34.67
73267;BME280;61495;53.400;7.608;2023-07-09T12:39:26;101741.97;;;35.59;34.41
73267;BME280;61495;53.400;7.608;2023-07-09T12:41:58;101746.50;;;35.79;35.28
73267;BME280;61495;53.400;7.608;2023-07-09T12:44:25;101738.41;;;36.02;36.07
73267;BME280;61495;53.400;7.608;2023-07-09T12:46:53;101734.69;;;35.98;36.46
73267;BME280;61495;53.400;7.608;2023-07-09T12:49:24;101741.09;;;35.71;33.66
73267;BME280;61495;53.400;7.608;2023-07-09T12:51:49;101732.41;;;35.88;34.72
73267;BME280;61495;53.400;7.608;2023-07-09T12:54:19;101730.50;;;35.76;33.72
73267;BME280;61495;53.400;7.608;2023-07-09T12:56:46;101736.16;;;35.80;34.58
73267;BME280;61495;53.400;7.608;2023-07-09T12:59:27;101730.97;;;35.94;35.07
73267;BME280;61495;53.400;7.608;2023-07-09T13:02:11;101728.97;;;35.79;34.60
73267;BME280;61495;53.400;7.608;2023-07-09T13:04:39;101733.59;;;35.87;35.21
73267;BME280;61495;53.400;7.608;2023-07-09T13:09:49;101740.59;;;35.96;34.96
73267;BME280;61495;53.400;7.608;2023-07-09T13:12:15;101732.44;;;36.03;34.02
73267;BME280;61495;53.400;7.608;2023-07-09T13:14:40;101719.69;;;36.18;37.21
73267;BME280;61495;53.400;7.608;2023-07-09T13:17:07;101718.97;;;36.21;35.15
73267;BME280;61495;53.400;7.608;2023-07-09T13:19:34;101721.97;;;36.28;34.92
73267;BME280;61495;53.400;7.608;2023-07-09T13:22:00;101721.34;;;36.19;35.36
73267;BME280;61495;53.400;7.608;2023-07-09T13:24:28;101724.06;;;36.31;34.67
73267;BME280;61495;53.400;7.608;2023-07-09T13:26:55;101724.31;;;36.42;36.15
73267;BME280;61495;53.400;7.608;2023-07-09T13:29:24;101731.63;;;36.46;36.49
73267;BME280;61495;53.400;7.608;2023-07-09T13:31:50;101716.41;;;36.59;36.85
73267;BME280;61495;53.400;7.608;2023-07-09T13:34:23;101723.34;;;36.65;36.16